Calcasieu, Louisiana
Current Conditions -  °F | °C
As of 2:35 PM on Friday 28 Nov 2014 (Local Time) from KACP Reporting Station
Clear Clear  
Wind Chill: 63°   Ceiling: Unl
Heat Index: 63°   Visibility: 10mi
Dew Point: 44°   Wind: 8mph
Humidity: 50%   Direction: 160°SSE
Pressure: 30.26"   Gusts: NA
Location:  30.9922°N, 92.6266°W
Report Text: KACP 282035Z AUTO 16007KT 10SM CLR 17/07 A3026 RMK AO2 T01710065
Loading
Personal Weather Stations






























Interactive Weather Map New forecast layout! Learn more

10-Day Weather Forecast

Advertisements
Track Severe Weather on mobile